Time;durP1;ratioP1;P1;durP2;ratioP2;P2;SDS_P1;SDS_P2;PMS_P1;PMS_P2;Temp;Humidity;BMP_temperature;BMP_pressure;BME280_temperature;BME280_humidity;BME280_pressure;Samples;Min_cycle;Max_cycle;Signal;HPM_P1;HPM_P2
2019/10/11 00:00:00;;;;;;;5.5;2.5;;;;;;;;;;;;;
2019/10/11 00:02:25;;;;;;;6.3;2.6;;;;;;;;;;;;;
2019/10/11 00:04:51;;;;;;;5.9;2.7;;;;;;;;;;;;;
2019/10/11 00:07:16;;;;;;;6.6;3;;;;;;;;;;;;;
2019/10/11 00:09:41;;;;;;;8.6;2.7;;;;;;;;;;;;;
2019/10/11 00:12:06;;;;;;;6.2;2.7;;;;;;;;;;;;;
2019/10/11 00:14:31;;;;;;;9.7;3;;;;;;;;;;;;;
2019/10/11 00:16:56;;;;;;;8;3.1;;;;;;;;;;;;;
2019/10/11 00:19:21;;;;;;;8.4;3;;;;;;;;;;;;;
2019/10/11 00:21:46;;;;;;;8.4;3.1;;;;;;;;;;;;;
2019/10/11 00:24:11;;;;;;;7.2;3.1;;;;;;;;;;;;;
2019/10/11 00:29:02;;;;;;;5.2;3;;;;;;;;;;;;;
2019/10/11 00:31:27;;;;;;;6.9;3.1;;;;;;;;;;;;;
2019/10/11 00:33:52;;;;;;;5.9;2.9;;;;;;;;;;;;;
2019/10/11 00:36:17;;;;;;;7.2;4.3;;;;;;;;;;;;;
2019/10/11 00:38:42;;;;;;;6.8;3.1;;;;;;;;;;;;;
2019/10/11 00:41:07;;;;;;;7.3;2.8;;;;;;;;;;;;;
2019/10/11 00:43:32;;;;;;;7.7;3;;;;;;;;;;;;;
2019/10/11 00:45:57;;;;;;;8.9;3.3;;;;;;;;;;;;;
2019/10/11 00:48:22;;;;;;;6.2;2.9;;;;;;;;;;;;;
2019/10/11 00:50:47;;;;;;;5.8;3;;;;;;;;;;;;;
2019/10/11 00:53:12;;;;;;;7.1;3.1;;;;;;;;;;;;;
2019/10/11 00:55:37;;;;;;;5.2;2.9;;;;;;;;;;;;;
2019/10/11 00:58:02;;;;;;;7.4;3.1;;;;;;;;;;;;;
2019/10/11 01:00:27;;;;;;;8.1;3.2;;;;;;;;;;;;;
2019/10/11 01:02:53;;;;;;;7.9;3.3;;;;;;;;;;;;;
2019/10/11 01:05:18;;;;;;;7.6;3.6;;;;;;;;;;;;;
2019/10/11 01:07:43;;;;;;;9.4;4.6;;;;;;;;;;;;;
2019/10/11 01:10:08;;;;;;;10.2;3.8;;;;;;;;;;;;;
2019/10/11 01:12:33;;;;;;;8.9;3.9;;;;;;;;;;;;;
2019/10/11 01:14:59;;;;;;;9.6;3.9;;;;;;;;;;;;;
2019/10/11 01:17:24;;;;;;;11.6;4.1;;;;;;;;;;;;;
2019/10/11 01:19:49;;;;;;;6.5;3.6;;;;;;;;;;;;;
2019/10/11 01:22:14;;;;;;;7.5;3.5;;;;;;;;;;;;;
2019/10/11 01:24:39;;;;;;;8.9;4;;;;;;;;;;;;;
2019/10/11 01:27:04;;;;;;;9.9;3.7;;;;;;;;;;;;;
2019/10/11 01:29:29;;;;;;;6.4;3.5;;;;;;;;;;;;;
2019/10/11 01:31:54;;;;;;;7.3;4;;;;;;;;;;;;;
2019/10/11 01:34:19;;;;;;;7.4;4.1;;;;;;;;;;;;;
2019/10/11 01:36:44;;;;;;;7.8;4.1;;;;;;;;;;;;;
2019/10/11 01:39:09;;;;;;;9.5;4.2;;;;;;;;;;;;;
2019/10/11 01:41:34;;;;;;;8.5;4.1;;;;;;;;;;;;;
2019/10/11 01:43:59;;;;;;;8.4;4.2;;;;;;;;;;;;;
2019/10/11 01:46:24;;;;;;;9.8;4.7;;;;;;;;;;;;;
2019/10/11 01:48:59;;;;;;;10.5;3.8;;;;;;;;;;;;;
2019/10/11 01:51:26;;;;;;;10.1;4.3;;;;;;;;;;;;;
2019/10/11 01:53:40;;;;;;;8.3;3.9;;;;;;;;;;;;;
2019/10/11 01:56:05;;;;;;;7.9;4.2;;;;;;;;;;;;;
2019/10/11 01:58:30;;;;;;;8.6;3.9;;;;;;;;;;;;;
2019/10/11 02:00:55;;;;;;;8.2;3.9;;;;;;;;;;;;;
2019/10/11 02:03:20;;;;;;;9.4;4.1;;;;;;;;;;;;;
2019/10/11 02:05:45;;;;;;;6.7;3.8;;;;;;;;;;;;;
2019/10/11 02:08:10;;;;;;;6.4;4.1;;;;;;;;;;;;;
2019/10/11 02:10:36;;;;;;;7.5;4.1;;;;;;;;;;;;;
2019/10/11 02:13:01;;;;;;;8.2;4.1;;;;;;;;;;;;;
2019/10/11 02:15:26;;;;;;;8.3;4.3;;;;;;;;;;;;;
2019/10/11 02:17:51;;;;;;;8.6;4;;;;;;;;;;;;;
2019/10/11 02:20:16;;;;;;;6.9;4;;;;;;;;;;;;;
2019/10/11 02:22:41;;;;;;;6.5;3.9;;;;;;;;;;;;;
2019/10/11 02:25:06;;;;;;;5.8;3.7;;;;;;;;;;;;;
2019/10/11 02:27:31;;;;;;;7.4;4.2;;;;;;;;;;;;;
2019/10/11 02:29:57;;;;;;;9.7;4.4;;;;;;;;;;;;;
2019/10/11 02:32:21;;;;;;;7.9;4.1;;;;;;;;;;;;;
2019/10/11 02:34:47;;;;;;;7.4;3.9;;;;;;;;;;;;;
2019/10/11 02:37:12;;;;;;;6.2;3.9;;;;;;;;;;;;;
2019/10/11 02:39:37;;;;;;;8.3;4;;;;;;;;;;;;;
2019/10/11 02:42:02;;;;;;;8.4;4;;;;;;;;;;;;;
2019/10/11 02:44:27;;;;;;;7.6;3.6;;;;;;;;;;;;;
2019/10/11 02:46:52;;;;;;;7.1;3.8;;;;;;;;;;;;;
2019/10/11 02:49:17;;;;;;;8.6;3.8;;;;;;;;;;;;;
2019/10/11 02:51:47;;;;;;;7.2;3.8;;;;;;;;;;;;;
2019/10/11 02:54:32;;;;;;;5.1;3.4;;;;;;;;;;;;;
2019/10/11 02:56:32;;;;;;;5.9;3.3;;;;;;;;;;;;;
2019/10/11 02:58:58;;;;;;;7.2;3.5;;;;;;;;;;;;;
2019/10/11 03:01:23;;;;;;;9.6;3.3;;;;;;;;;;;;;
2019/10/11 03:03:48;;;;;;;8.1;3.4;;;;;;;;;;;;;
2019/10/11 03:06:13;;;;;;;9.5;3.8;;;;;;;;;;;;;
2019/10/11 03:08:39;;;;;;;8.6;3.3;;;;;;;;;;;;;
2019/10/11 03:11:03;;;;;;;7.4;3.5;;;;;;;;;;;;;
2019/10/11 03:13:29;;;;;;;9;3.7;;;;;;;;;;;;;
2019/10/11 03:15:54;;;;;;;7.7;3.6;;;;;;;;;;;;;
2019/10/11 03:18:19;;;;;;;7;3.5;;;;;;;;;;;;;
2019/10/11 03:20:44;;;;;;;7.2;3.6;;;;;;;;;;;;;
2019/10/11 03:23:09;;;;;;;6.6;3.3;;;;;;;;;;;;;
2019/10/11 03:25:34;;;;;;;7.8;3.6;;;;;;;;;;;;;
2019/10/11 03:27:59;;;;;;;7.7;3.5;;;;;;;;;;;;;
2019/10/11 03:30:29;;;;;;;6.5;3.6;;;;;;;;;;;;;
2019/10/11 03:32:55;;;;;;;6.8;3.3;;;;;;;;;;;;;
2019/10/11 03:35:20;;;;;;;6.8;3.5;;;;;;;;;;;;;
2019/10/11 03:37:45;;;;;;;9.1;3.5;;;;;;;;;;;;;
2019/10/11 03:40:10;;;;;;;9.3;3.7;;;;;;;;;;;;;
2019/10/11 03:42:35;;;;;;;7.5;3.6;;;;;;;;;;;;;
2019/10/11 03:45:04;;;;;;;8.4;3.6;;;;;;;;;;;;;
2019/10/11 03:47:29;;;;;;;9.1;3.4;;;;;;;;;;;;;
2019/10/11 03:49:54;;;;;;;7.4;3.5;;;;;;;;;;;;;
2019/10/11 03:52:19;;;;;;;6.8;3.6;;;;;;;;;;;;;
2019/10/11 03:54:44;;;;;;;7.6;3.3;;;;;;;;;;;;;
2019/10/11 03:57:10;;;;;;;8.5;3.5;;;;;;;;;;;;;
2019/10/11 03:59:34;;;;;;;7.5;3.5;;;;;;;;;;;;;
2019/10/11 04:02:28;;;;;;;8.5;3.7;;;;;;;9.02;95.97363;1005.929;;;;
2019/10/11 04:04:53;;;;;;;7.1;3.5;;;;;;;8.81;97.30566;1005.9;;;;
2019/10/11 04:07:18;;;;;;;6.7;3.4;;;;;;;8.97;97.15918;1005.934;;;;
2019/10/11 04:09:43;;;;;;;8.2;3.1;;;;;;;9.02;96.83887;1005.934;;;;
2019/10/11 04:12:08;;;;;;;8.3;3.2;;;;;;;9.07;96.46289;1006.014;;;;
2019/10/11 04:14:33;;;;;;;6.1;3;;;;;;;9.12;96.15332;1006.115;;;;
2019/10/11 04:16:58;;;;;;;6.7;3.2;;;;;;;9.08;95.8623;1006.174;;;;
2019/10/11 04:19:23;;;;;;;7.9;3.2;;;;;;;8.93;96.32813;1006.139;;;;
2019/10/11 04:21:48;;;;;;;5.9;3;;;;;;;8.87;96.40918;1006.071;;;;
2019/10/11 04:24:14;;;;;;;5.3;3.3;;;;;;;8.83;96.10254;1006.176;;;;
2019/10/11 04:29:04;;;;;;;6.2;3.1;;;;;;;8.75;96.49512;1006.16;;;;
2019/10/11 04:31:29;;;;;;;6.9;3.2;;;;;;;8.61;96.50586;1006.096;;;;
2019/10/11 04:33:54;;;;;;;7.2;3.4;;;;;;;8.53;97.19629;1006.18;;;;
2019/10/11 04:36:19;;;;;;;6.1;3.3;;;;;;;8.5;97.27051;1006.176;;;;
2019/10/11 04:38:44;;;;;;;6.5;3.2;;;;;;;8.52;97.04688;1006.186;;;;
2019/10/11 04:41:10;;;;;;;6.1;3.5;;;;;;;8.5;97.21289;1006.235;;;;
2019/10/11 04:43:34;;;;;;;6;3.7;;;;;;;8.58;97.28906;1006.129;;;;
2019/10/11 04:45:59;;;;;;;9.1;3.7;;;;;;;8.59;97.2207;1006.136;;;;
2019/10/11 04:48:25;;;;;;;7.8;3.9;;;;;;;8.59;97.26953;1006.209;;;;
2019/10/11 04:50:50;;;;;;;9;3.7;;;;;;;8.62;97.24023;1006.172;;;;
2019/10/11 04:53:15;;;;;;;6.8;3.4;;;;;;;8.58;97.1748;1006.197;;;;
2019/10/11 04:55:40;;;;;;;8;3.9;;;;;;;8.57;97.25;1006.159;;;;
2019/10/11 04:58:06;;;;;;;7.2;3.6;;;;;;;8.53;97.10547;1006.163;;;;
2019/10/11 05:00:31;;;;;;;7.6;3.9;;;;;;;8.43;97.28809;1006.201;;;;
2019/10/11 05:02:56;;;;;;;8.7;3.8;;;;;;;8.51;97.04492;1006.211;;;;
2019/10/11 05:05:21;;;;;;;8.2;4;;;;;;;8.55;97.13281;1006.233;;;;
2019/10/11 05:07:46;;;;;;;6.5;3.7;;;;;;;8.55;96.36914;1006.309;;;;
2019/10/11 05:10:11;;;;;;;7.2;3.6;;;;;;;8.56;96.23438;1006.287;;;;
2019/10/11 05:12:36;;;;;;;7.5;4;;;;;;;8.54;96.23047;1006.371;;;;
2019/10/11 05:15:01;;;;;;;7.7;3.7;;;;;;;8.6;95.70898;1006.397;;;;
2019/10/11 05:17:26;;;;;;;7.4;3.5;;;;;;;8.59;95.83203;1006.404;;;;
2019/10/11 05:19:52;;;;;;;8;3.5;;;;;;;8.66;95.50391;1006.42;;;;
2019/10/11 05:22:17;;;;;;;5;3.4;;;;;;;8.56;95.7002;1006.38;;;;
2019/10/11 05:24:42;;;;;;;8.3;3.9;;;;;;;8.45;96.07324;1006.381;;;;
2019/10/11 05:27:07;;;;;;;8;3.4;;;;;;;8.59;96.00293;1006.31;;;;
2019/10/11 05:29:32;;;;;;;6.5;3.4;;;;;;;8.62;95.9541;1006.206;;;;
2019/10/11 05:31:58;;;;;;;11.1;3.8;;;;;;;8.7;95.84473;1006.084;;;;
2019/10/11 05:37:02;;;;;;;9.9;3.9;;;;;;;8.74;96.23047;1006.014;;;;
2019/10/11 05:39:15;;;;;;;8.2;4.2;;;;;;;8.77;96.5127;1006.123;;;;
2019/10/11 05:41:38;;;;;;;8.1;3.7;;;;;;;8.95;96.11523;1006.177;;;;
2019/10/11 05:44:03;;;;;;;4.7;3.4;;;;;;;9.07;95.33301;1006.31;;;;
2019/10/11 05:46:28;;;;;;;10.1;3.6;;;;;;;9.09;94.60742;1006.255;;;;
2019/10/11 05:48:53;;;;;;;6.6;4.3;;;;;;;8.98;95.17676;1006.255;;;;
2019/10/11 05:51:19;;;;;;;7;3.9;;;;;;;8.88;95.22363;1006.252;;;;
2019/10/11 05:53:44;;;;;;;7.1;4.2;;;;;;;8.94;95.71387;1006.256;;;;
2019/10/11 05:56:09;;;;;;;8.6;4.2;;;;;;;9.05;95.44336;1006.231;;;;
2019/10/11 05:58:34;;;;;;;9.4;4.5;;;;;;;9.17;95.02637;1006.28;;;;
2019/10/11 06:00:59;;;;;;;11.4;5.1;;;;;;;9.41;94.32422;1006.331;;;;
2019/10/11 06:03:24;;;;;;;10.6;5;;;;;;;9.52;93.44824;1006.447;;;;
2019/10/11 06:05:49;;;;;;;12.9;4.9;;;;;;;9.53;93.84766;1006.385;;;;
2019/10/11 06:08:14;;;;;;;10.2;4.4;;;;;;;9.52;93.95996;1006.379;;;;
2019/10/11 06:10:40;;;;;;;9.9;4.7;;;;;;;9.64;93.88477;1006.42;;;;
2019/10/11 06:13:05;;;;;;;8;4.6;;;;;;;9.77;93.4209;1006.444;;;;
2019/10/11 06:15:30;;;;;;;10.6;4.1;;;;;;;9.87;93.31641;1006.452;;;;
2019/10/11 06:17:55;;;;;;;9.3;4.6;;;;;;;10.02;92.47852;1006.491;;;;
2019/10/11 06:20:20;;;;;;;8.6;5;;;;;;;10.15;92.17578;1006.51;;;;
2019/10/11 06:22:45;;;;;;;11.5;6.9;;;;;;;10.34;90.84473;1006.41;;;;
2019/10/11 06:25:21;;;;;;;12.1;6.8;;;;;;;10.49;90.25684;1006.309;;;;
2019/10/11 06:27:46;;;;;;;11.2;6.9;;;;;;;10.58;89.85059;1006.254;;;;
2019/10/11 06:30:11;;;;;;;12.2;5.9;;;;;;;10.61;89.68555;1006.166;;;;
2019/10/11 06:32:36;;;;;;;8.5;4.8;;;;;;;10.81;89.24609;1006.056;;;;
2019/10/11 06:35:01;;;;;;;11.7;6.8;;;;;;;10.86;88.55859;1005.98;;;;
2019/10/11 06:37:26;;;;;;;11.9;6.4;;;;;;;10.96;88.40625;1005.899;;;;
2019/10/11 06:39:51;;;;;;;11.2;6.4;;;;;;;11.01;88.29199;1005.833;;;;
2019/10/11 06:42:16;;;;;;;10.2;6.9;;;;;;;11.03;88.29688;1005.821;;;;
2019/10/11 06:44:41;;;;;;;12.9;7.3;;;;;;;11.02;88.08496;1005.868;;;;
2019/10/11 06:47:06;;;;;;;12.8;7;;;;;;;11.03;88.13281;1005.951;;;;
2019/10/11 06:49:32;;;;;;;11.6;6.9;;;;;;;11.2;88.25;1005.976;;;;
2019/10/11 06:51:57;;;;;;;12.3;6.8;;;;;;;11.2;89.48633;1005.965;;;;
2019/10/11 06:54:22;;;;;;;12.1;6.4;;;;;;;11.54;87.28711;1005.881;;;;
2019/10/11 06:56:47;;;;;;;12;6.3;;;;;;;11.7;86.68848;1005.943;;;;
2019/10/11 06:59:12;;;;;;;12.2;5.8;;;;;;;11.83;86.85156;1005.955;;;;
2019/10/11 07:01:37;;;;;;;8.6;5.4;;;;;;;11.99;85.80371;1005.883;;;;
2019/10/11 07:04:02;;;;;;;10.3;5.1;;;;;;;12.32;84.78711;1005.881;;;;
2019/10/11 07:06:28;;;;;;;12.7;5.1;;;;;;;12.56;84.16602;1005.897;;;;
2019/10/11 07:08:53;;;;;;;8.2;4.4;;;;;;;12.98;82.95898;1005.917;;;;
2019/10/11 07:11:18;;;;;;;9.7;4.3;;;;;;;13.2;81.81543;1005.992;;;;
2019/10/11 07:13:43;;;;;;;8.7;3.3;;;;;;;13.51;79.99414;1006.061;;;;
2019/10/11 07:16:08;;;;;;;6;2.6;;;;;;;13.55;79.40137;1006.066;;;;
2019/10/11 07:18:33;;;;;;;6.9;2.6;;;;;;;14.38;77.13867;1006.046;;;;
2019/10/11 07:20:58;;;;;;;9.7;2.6;;;;;;;15.02;74.07031;1006.072;;;;
2019/10/11 07:23:24;;;;;;;5.8;2.6;;;;;;;14.77;74.49316;1006.082;;;;
2019/10/11 07:25:48;;;;;;;6.6;2.2;;;;;;;14.46;74.64648;1006.01;;;;
2019/10/11 07:28:14;;;;;;;7.4;2.4;;;;;;;14.54;74.50977;1006.012;;;;
2019/10/11 07:30:39;;;;;;;7.8;2.4;;;;;;;14.18;75.76563;1005.974;;;;
2019/10/11 07:33:04;;;;;;;6.5;2.5;;;;;;;14.36;75.02148;1005.914;;;;
2019/10/11 07:35:29;;;;;;;5.5;2.2;;;;;;;14.36;75.26465;1005.957;;;;
2019/10/11 07:37:54;;;;;;;5.4;2.2;;;;;;;14.45;75.53516;1005.88;;;;
2019/10/11 07:40:20;;;;;;;5.1;2.2;;;;;;;14.74;74.34863;1005.903;;;;
2019/10/11 07:42:45;;;;;;;8.4;2.5;;;;;;;14.3;75.37012;1005.939;;;;
2019/10/11 07:45:10;;;;;;;4.4;2;;;;;;;14.47;75.41113;1006.06;;;;
2019/10/11 07:47:35;;;;;;;5.5;2.3;;;;;;;14.66;75.17871;1006.137;;;;
2019/10/11 07:50:00;;;;;;;5.5;2;;;;;;;14.85;74.27441;1006.188;;;;
2019/10/11 07:52:26;;;;;;;3.7;2.1;;;;;;;14.85;74.2168;1006.163;;;;
2019/10/11 07:54:51;;;;;;;4.8;2.1;;;;;;;15.01;73.78125;1006.144;;;;
2019/10/11 07:57:16;;;;;;;6.6;2.2;;;;;;;14.54;75.59766;1006.267;;;;
2019/10/11 08:00:48;;;;;;;5.6;2;;;;;;;14.58;75.22266;1006.285;;;;
2019/10/11 08:02:06;;;;;;;5.2;2.2;;;;;;;14.11;76.86133;1006.338;;;;
2019/10/11 08:04:32;;;;;;;5.7;2;;;;;;;14.27;76.90137;1006.324;;;;
2019/10/11 08:06:57;;;;;;;6;2.3;;;;;;;14.18;77.11523;1006.403;;;;
2019/10/11 08:09:22;;;;;;;5.7;2.4;;;;;;;14.32;76.81738;1006.41;;;;
2019/10/11 08:11:47;;;;;;;5;2.4;;;;;;;14.2;77.21094;1006.368;;;;
2019/10/11 08:14:12;;;;;;;5.5;2.5;;;;;;;14.12;78.12109;1006.291;;;;
2019/10/11 08:16:37;;;;;;;6.8;2.5;;;;;;;14.27;77.10938;1006.237;;;;
2019/10/11 08:19:02;;;;;;;5.7;2.6;;;;;;;14.4;76.7041;1006.241;;;;
2019/10/11 08:21:27;;;;;;;6.7;2.2;;;;;;;14.38;77.41602;1006.3;;;;
2019/10/11 08:23:52;;;;;;;4.7;2.2;;;;;;;14.2;77.98535;1006.294;;;;
2019/10/11 08:26:17;;;;;;;6.7;3.3;;;;;;;14.26;78.1582;1006.299;;;;
2019/10/11 08:28:43;;;;;;;7.7;2.2;;;;;;;14.43;77.36719;1006.264;;;;
2019/10/11 08:31:08;;;;;;;7.8;2.7;;;;;;;14.4;77.57031;1006.21;;;;
2019/10/11 08:33:33;;;;;;;6.3;2.7;;;;;;;14.61;76.45215;1006.156;;;;
2019/10/11 08:35:58;;;;;;;7;2.5;;;;;;;14.61;76.49805;1006.156;;;;
2019/10/11 08:38:23;;;;;;;5.3;2.1;;;;;;;14.68;76.05957;1006.049;;;;
2019/10/11 08:40:48;;;;;;;5.5;2.4;;;;;;;14.71;77.12988;1006.063;;;;
2019/10/11 08:43:14;;;;;;;7.9;3.3;;;;;;;14.89;76.97656;1006.081;;;;
2019/10/11 08:45:38;;;;;;;7.3;2.8;;;;;;;15.09;76.07227;1006.098;;;;
2019/10/11 08:48:04;;;;;;;6.1;2.3;;;;;;;15.18;76.45898;1006.129;;;;
2019/10/11 08:50:29;;;;;;;4.3;2.3;;;;;;;15.41;75.59668;1006.207;;;;
2019/10/11 08:52:54;;;;;;;5.4;2.2;;;;;;;15.36;75.0791;1006.13;;;;
2019/10/11 08:55:19;;;;;;;4.6;2.1;;;;;;;15.27;75.2959;1006.115;;;;
2019/10/11 08:57:44;;;;;;;4.8;2;;;;;;;15.47;75.35449;1006.127;;;;
2019/10/11 09:00:09;;;;;;;4.1;1.9;;;;;;;15.75;74.72852;1006.218;;;;
2019/10/11 09:02:34;;;;;;;5.3;2;;;;;;;15.44;75.07031;1006.199;;;;
2019/10/11 09:04:59;;;;;;;4.9;2;;;;;;;15.6;74.35645;1006.265;;;;
2019/10/11 09:07:24;;;;;;;5.3;2;;;;;;;15.36;74.7666;1006.205;;;;
2019/10/11 09:09:50;;;;;;;8;2.4;;;;;;;15.77;73.29688;1006.178;;;;
2019/10/11 09:12:14;;;;;;;4.2;1.6;;;;;;;15.42;74.5459;1006.173;;;;
2019/10/11 09:14:39;;;;;;;4.7;2;;;;;;;15.48;74.16211;1006.136;;;;
2019/10/11 09:17:05;;;;;;;4.2;1.8;;;;;;;15.57;74.29102;1006.098;;;;
2019/10/11 09:19:30;;;;;;;5.4;2;;;;;;;15.61;74.17188;1006.093;;;;
2019/10/11 09:21:55;;;;;;;8.8;3.1;;;;;;;15.7;74.10742;1006.117;;;;
2019/10/11 09:24:20;;;;;;;7.5;2;;;;;;;15.97;73.51367;1006.145;;;;
2019/10/11 09:26:45;;;;;;;4.7;1.8;;;;;;;16.12;72.84375;1006.102;;;;
2019/10/11 09:29:10;;;;;;;7.3;1.7;;;;;;;16.39;71.94922;1006.126;;;;
2019/10/11 09:31:35;;;;;;;5.5;1.8;;;;;;;16.45;71.55273;1006.055;;;;
2019/10/11 09:34:00;;;;;;;3.8;1.6;;;;;;;16.31;71.98242;1006.03;;;;
2019/10/11 09:36:26;;;;;;;6;2.1;;;;;;;16.07;72.06934;1006.024;;;;
2019/10/11 09:38:51;;;;;;;4.6;2.2;;;;;;;16.16;72.6416;1006.025;;;;
2019/10/11 09:41:16;;;;;;;4.2;2;;;;;;;16.25;72.37793;1005.963;;;;
2019/10/11 09:43:41;;;;;;;7.2;2.3;;;;;;;16.67;71.88867;1005.886;;;;
2019/10/11 09:46:06;;;;;;;4.9;1.7;;;;;;;16.63;70.36328;1005.889;;;;
2019/10/11 09:48:31;;;;;;;4.7;1.9;;;;;;;16.97;70.77734;1005.935;;;;
2019/10/11 09:50:56;;;;;;;3.4;1.6;;;;;;;17.06;68.75977;1005.975;;;;
2019/10/11 09:53:21;;;;;;;4.1;1.4;;;;;;;17.13;67.5957;1005.97;;;;
2019/10/11 09:55:47;;;;;;;3;1.3;;;;;;;17.51;66.65332;1005.941;;;;
2019/10/11 09:58:12;;;;;;;3.1;1.3;;;;;;;17.51;65.58301;1005.986;;;;
2019/10/11 10:00:37;;;;;;;3.8;1.4;;;;;;;17.32;66.35742;1005.937;;;;
2019/10/11 10:03:02;;;;;;;6.6;2.3;;;;;;;17.4;66.125;1005.915;;;;
2019/10/11 10:05:27;;;;;;;5.7;1.5;;;;;;;17.7;64.86621;1005.758;;;;
2019/10/11 10:07:52;;;;;;;4.3;1.5;;;;;;;18.05;64.24316;1005.645;;;;
2019/10/11 10:10:17;;;;;;;5.3;1.4;;;;;;;17.63;65.60156;1005.5;;;;
2019/10/11 10:12:42;;;;;;;5.1;1.5;;;;;;;17.95;63.53027;1005.422;;;;
2019/10/11 10:15:07;;;;;;;2.6;1.2;;;;;;;18.41;61.18359;1005.362;;;;
2019/10/11 10:17:33;;;;;;;2.1;1.1;;;;;;;18.09;62.05957;1005.283;;;;
2019/10/11 10:19:58;;;;;;;3.4;1.1;;;;;;;18.66;60.57715;1005.407;;;;
2019/10/11 10:22:23;;;;;;;3.7;1.1;;;;;;;19.15;59.35938;1005.451;;;;
2019/10/11 10:24:48;;;;;;;2.7;1.2;;;;;;;19.52;58.8252;1005.449;;;;
2019/10/11 10:27:13;;;;;;;4.4;1.2;;;;;;;19.99;56.96973;1005.365;;;;
2019/10/11 10:29:38;;;;;;;4.2;1.2;;;;;;;19.48;57.62793;1005.358;;;;
2019/10/11 10:32:03;;;;;;;2.3;1.1;;;;;;;20.26;57.01563;1005.274;;;;
2019/10/11 10:34:28;;;;;;;4.7;1.1;;;;;;;19.9;56.8418;1005.1;;;;
2019/10/11 10:36:54;;;;;;;4.6;1.5;;;;;;;20.04;56.28711;1005.044;;;;
2019/10/11 10:39:19;;;;;;;5.5;1.8;;;;;;;19.65;57.76855;1004.932;;;;
2019/10/11 10:41:44;;;;;;;4.1;1.3;;;;;;;19.31;59.04395;1004.953;;;;
2019/10/11 10:44:09;;;;;;;3.1;1.6;;;;;;;19.44;59.65625;1004.991;;;;
2019/10/11 10:46:35;;;;;;;3.8;1.4;;;;;;;18.95;60.99023;1004.942;;;;
2019/10/11 10:49:00;;;;;;;2.8;1.1;;;;;;;18.77;60.56934;1004.857;;;;
2019/10/11 10:51:25;;;;;;;2.7;1.1;;;;;;;19.01;60.85742;1004.801;;;;
2019/10/11 10:53:50;;;;;;;2.1;1.1;;;;;;;18.91;61.62598;1004.748;;;;
2019/10/11 10:56:15;;;;;;;2.9;1.2;;;;;;;18.91;61.69727;1004.629;;;;
2019/10/11 10:58:40;;;;;;;2.5;1.1;;;;;;;18.73;61.95117;1004.606;;;;
2019/10/11 11:01:06;;;;;;;3.6;1.2;;;;;;;18.65;61.75195;1004.63;;;;
2019/10/11 11:03:31;;;;;;;2.8;1;;;;;;;18.85;61.45313;1004.648;;;;
2019/10/11 11:05:56;;;;;;;2.7;1.1;;;;;;;18.84;61.6748;1004.704;;;;
2019/10/11 11:08:21;;;;;;;2.6;1.1;;;;;;;18.74;61.80078;1004.696;;;;
2019/10/11 11:10:46;;;;;;;2.2;1;;;;;;;18.79;61.10742;1004.657;;;;
2019/10/11 11:13:11;;;;;;;2.7;1;;;;;;;18.78;61.31641;1004.566;;;;
2019/10/11 11:15:36;;;;;;;1.9;1.1;;;;;;;18.99;61.3584;1004.546;;;;
2019/10/11 11:18:01;;;;;;;2.4;1.1;;;;;;;19.15;61.12402;1004.438;;;;
2019/10/11 11:20:26;;;;;;;2.5;1;;;;;;;19.1;61.08105;1004.509;;;;
2019/10/11 11:22:52;;;;;;;3;1;;;;;;;19;61.0791;1004.48;;;;
2019/10/11 11:25:17;;;;;;;3.7;1;;;;;;;19.12;60.74512;1004.517;;;;
2019/10/11 11:27:42;;;;;;;6.2;1;;;;;;;19.37;60.39453;1004.423;;;;
2019/10/11 11:30:07;;;;;;;3.5;1.2;;;;;;;19.43;59.75879;1004.369;;;;
2019/10/11 11:32:32;;;;;;;3.3;1.1;;;;;;;19.48;59.67285;1004.367;;;;
2019/10/11 11:34:57;;;;;;;2.1;1;;;;;;;19.71;59.28418;1004.392;;;;
2019/10/11 11:37:22;;;;;;;4.4;1.2;;;;;;;19.63;59.36523;1004.323;;;;
2019/10/11 11:39:47;;;;;;;1.7;0.9;;;;;;;19.44;59.06055;1004.326;;;;
2019/10/11 11:42:12;;;;;;;2.4;1;;;;;;;19.4;59.21777;1004.288;;;;
2019/10/11 11:44:37;;;;;;;2.9;1.2;;;;;;;19.36;59.77246;1004.145;;;;
2019/10/11 11:47:02;;;;;;;2.7;1.1;;;;;;;19.48;59.60254;1004.117;;;;
2019/10/11 11:49:28;;;;;;;2.6;0.9;;;;;;;19.43;58.46387;1004.1;;;;
2019/10/11 11:51:53;;;;;;;2.5;1;;;;;;;19.38;58.77148;1004.118;;;;
2019/10/11 11:54:18;;;;;;;3.8;0.9;;;;;;;19.47;58.88867;1004.134;;;;
2019/10/11 11:56:43;;;;;;;2.9;1.1;;;;;;;19.32;59.05566;1004.009;;;;
2019/10/11 11:59:08;;;;;;;2.5;0.9;;;;;;;19.19;59.35352;1003.961;;;;
2019/10/11 12:01:33;;;;;;;4.2;1;;;;;;;19.34;59.03613;1003.991;;;;
2019/10/11 12:03:58;;;;;;;3.6;0.9;;;;;;;19.44;58.60449;1003.969;;;;
2019/10/11 12:06:23;;;;;;;2.1;0.8;;;;;;;19.67;58.08398;1003.97;;;;
2019/10/11 12:08:48;;;;;;;1.6;1;;;;;;;19.83;57.84961;1003.89;;;;
2019/10/11 12:11:14;;;;;;;2.4;0.9;;;;;;;19.93;57.28906;1003.869;;;;
2019/10/11 12:13:39;;;;;;;1.7;0.8;;;;;;;19.93;57.23047;1003.922;;;;
2019/10/11 12:16:04;;;;;;;1.4;1.1;;;;;;;20.19;57.40527;1003.926;;;;
2019/10/11 12:18:29;;;;;;;3.2;1.1;;;;;;;19.87;56.96582;1003.829;;;;
2019/10/11 12:20:54;;;;;;;2.7;1.1;;;;;;;19.88;57.16699;1003.771;;;;
2019/10/11 12:23:19;;;;;;;3.9;0.9;;;;;;;19.79;56.7207;1003.744;;;;
2019/10/11 12:25:44;;;;;;;2.7;0.9;;;;;;;19.7;57.49316;1003.691;;;;
2019/10/11 12:28:09;;;;;;;2.7;1.2;;;;;;;19.72;57.42578;1003.712;;;;
2019/10/11 12:30:35;;;;;;;2.7;0.9;;;;;;;19.35;58.18457;1003.704;;;;
2019/10/11 12:32:59;;;;;;;2.7;1.1;;;;;;;19.25;59.0459;1003.808;;;;
2019/10/11 12:35:24;;;;;;;3.7;1.6;;;;;;;19.31;58.3418;1003.655;;;;
2019/10/11 12:37:49;;;;;;;3.2;1;;;;;;;19.34;58.7207;1003.732;;;;
2019/10/11 12:40:14;;;;;;;1.8;1;;;;;;;19.47;58.51367;1003.702;;;;
2019/10/11 12:42:40;;;;;;;2.2;1;;;;;;;19.44;58.46387;1003.686;;;;
2019/10/11 12:45:05;;;;;;;2.3;1.1;;;;;;;19.4;58.69238;1003.739;;;;
2019/10/11 12:47:37;;;;;;;3.9;1.3;;;;;;;19.67;58.25;1003.658;;;;
2019/10/11 12:49:55;;;;;;;2.5;1;;;;;;;19.7;57.83301;1003.64;;;;
2019/10/11 12:52:20;;;;;;;3.3;1.1;;;;;;;19.69;58.6377;1003.621;;;;
2019/10/11 12:54:45;;;;;;;2.4;1.1;;;;;;;19.63;58.62988;1003.545;;;;
2019/10/11 12:57:10;;;;;;;1.7;1;;;;;;;19.58;58.69434;1003.555;;;;
2019/10/11 12:59:35;;;;;;;2.4;1.1;;;;;;;19.48;59.08887;1003.499;;;;
2019/10/11 13:02:01;;;;;;;2.2;1.1;;;;;;;19.44;59.21094;1003.43;;;;
2019/10/11 13:04:26;;;;;;;4.2;1.2;;;;;;;19.54;59.10742;1003.416;;;;
2019/10/11 13:06:51;;;;;;;2.3;1.1;;;;;;;19.5;59.25586;1003.378;;;;
2019/10/11 13:09:16;;;;;;;3.5;1.1;;;;;;;19.41;59.21973;1003.409;;;;
2019/10/11 13:11:41;;;;;;;2.4;1.1;;;;;;;19.66;59.10156;1003.405;;;;
2019/10/11 13:14:06;;;;;;;3.6;1.2;;;;;;;19.69;58.34473;1003.334;;;;
2019/10/11 13:16:31;;;;;;;5.6;1.3;;;;;;;19.59;58.51855;1003.355;;;;
2019/10/11 13:18:56;;;;;;;2.7;1.1;;;;;;;19.67;58.21289;1003.338;;;;
2019/10/11 13:21:24;;;;;;;3.2;1.2;;;;;;;19.68;58.73047;1003.406;;;;
2019/10/11 13:23:48;;;;;;;3.3;1.4;;;;;;;19.69;59.16406;1003.361;;;;
2019/10/11 13:26:13;;;;;;;2.5;1;;;;;;;19.76;58.77637;1003.325;;;;
2019/10/11 13:28:38;;;;;;;3.1;1.2;;;;;;;19.69;58.36816;1003.263;;;;
2019/10/11 13:31:03;;;;;;;3.4;1.2;;;;;;;19.77;58.41406;1003.342;;;;
2019/10/11 13:33:34;;;;;;;4.7;1.3;;;;;;;19.91;57.96582;1003.337;;;;
2019/10/11 13:35:53;;;;;;;3.4;1.3;;;;;;;20.13;56.625;1003.319;;;;
2019/10/11 13:38:18;;;;;;;2.3;1.1;;;;;;;20.01;57.25195;1003.285;;;;
2019/10/11 13:40:45;;;;;;;4.7;1.4;;;;;;;20.19;57.03027;1003.325;;;;
2019/10/11 13:43:10;;;;;;;4;1.4;;;;;;;20.16;57.68164;1003.284;;;;
2019/10/11 13:45:35;;;;;;;3.9;1.1;;;;;;;20.1;57.22949;1003.182;;;;
2019/10/11 13:48:00;;;;;;;2.7;1.2;;;;;;;20;57.43945;1003.135;;;;
2019/10/11 13:50:25;;;;;;;2.5;1.2;;;;;;;19.91;58.07031;1003.047;;;;
2019/10/11 13:52:51;;;;;;;2.5;1.1;;;;;;;20.05;57.9834;1003.032;;;;
2019/10/11 13:55:16;;;;;;;2.5;1.1;;;;;;;19.95;58.32129;1003.097;;;;
2019/10/11 13:57:41;;;;;;;2.9;1.2;;;;;;;19.93;58.11816;1003.034;;;;
2019/10/11 14:00:06;;;;;;;3.8;1.5;;;;;;;19.85;58.54199;1002.994;;;;
2019/10/11 14:02:31;;;;;;;4.1;1.6;;;;;;;19.71;58.67578;1002.948;;;;
2019/10/11 14:04:56;;;;;;;3.8;1.2;;;;;;;19.67;59.18262;1002.913;;;;
2019/10/11 14:07:21;;;;;;;5.2;1.6;;;;;;;19.89;58.40723;1002.894;;;;
2019/10/11 14:09:46;;;;;;;2.5;1.1;;;;;;;19.9;58.50195;1002.852;;;;
2019/10/11 14:12:11;;;;;;;4.4;1.5;;;;;;;19.78;58.56738;1002.937;;;;
2019/10/11 14:14:36;;;;;;;2.8;1.2;;;;;;;19.8;58.02051;1002.934;;;;
2019/10/11 14:17:01;;;;;;;1.6;1;;;;;;;19.74;58.29395;1002.943;;;;
2019/10/11 14:19:27;;;;;;;4.4;1.6;;;;;;;19.79;57.98438;1002.864;;;;
2019/10/11 14:21:52;;;;;;;3.6;1.3;;;;;;;19.79;58.39355;1002.883;;;;
2019/10/11 14:24:17;;;;;;;3.3;1.1;;;;;;;19.85;57.85156;1002.846;;;;
2019/10/11 14:26:42;;;;;;;4.2;1.1;;;;;;;19.81;58.24316;1002.81;;;;
2019/10/11 14:29:07;;;;;;;3.2;1.3;;;;;;;19.76;58.66992;1002.785;;;;
2019/10/11 14:31:32;;;;;;;2.6;1.2;;;;;;;19.84;58.40039;1002.864;;;;
2019/10/11 14:33:58;;;;;;;3.2;1.1;;;;;;;19.85;58.64746;1002.795;;;;
2019/10/11 14:36:23;;;;;;;3.3;1.4;;;;;;;19.86;58.4502;1002.788;;;;
2019/10/11 14:38:48;;;;;;;3;1.2;;;;;;;19.74;59.04199;1002.763;;;;
2019/10/11 14:41:13;;;;;;;1.9;1.2;;;;;;;19.59;59.36035;1002.816;;;;
2019/10/11 14:43:38;;;;;;;4.9;1.2;;;;;;;19.51;59.57129;1002.797;;;;
2019/10/11 14:46:03;;;;;;;2.4;1;;;;;;;19.5;60.12109;1002.721;;;;
2019/10/11 14:48:28;;;;;;;2.7;1.1;;;;;;;19.47;59.94043;1002.665;;;;
2019/10/11 14:50:53;;;;;;;2.8;1.2;;;;;;;19.38;60.54785;1002.663;;;;
2019/10/11 14:53:18;;;;;;;4;1.2;;;;;;;19.34;60.93848;1002.696;;;;
2019/10/11 14:55:44;;;;;;;4.2;1.1;;;;;;;19.31;60.99316;1002.653;;;;
2019/10/11 14:58:09;;;;;;;3.8;1.5;;;;;;;19.22;61.15723;1002.64;;;;
2019/10/11 15:00:34;;;;;;;2.8;1.3;;;;;;;19.23;61.15723;1002.619;;;;
2019/10/11 15:02:59;;;;;;;3.2;1.3;;;;;;;19.17;61.82715;1002.62;;;;
2019/10/11 15:05:24;;;;;;;3.6;1.3;;;;;;;19.11;61.88672;1002.588;;;;
2019/10/11 15:07:49;;;;;;;3.7;1.6;;;;;;;18.93;62.7832;1002.498;;;;
2019/10/11 15:10:14;;;;;;;4.8;1.1;;;;;;;18.89;63.03613;1002.477;;;;
2019/10/11 15:12:39;;;;;;;4.2;1.9;;;;;;;18.86;63.5459;1002.438;;;;
2019/10/11 15:15:04;;;;;;;2.8;1.5;;;;;;;18.89;63.58301;1002.427;;;;
2019/10/11 15:17:29;;;;;;;3.1;1.4;;;;;;;18.79;63.99023;1002.403;;;;
2019/10/11 15:19:54;;;;;;;4.6;1.7;;;;;;;18.85;63.78711;1002.368;;;;
2019/10/11 15:22:19;;;;;;;3.2;1.6;;;;;;;18.72;64.20117;1002.344;;;;
2019/10/11 15:24:44;;;;;;;2.3;1.4;;;;;;;18.6;64.5332;1002.415;;;;
2019/10/11 15:27:10;;;;;;;4;1.6;;;;;;;18.59;65.06836;1002.375;;;;
2019/10/11 15:29:35;;;;;;;3.6;1.5;;;;;;;18.55;64.74805;1002.324;;;;
2019/10/11 15:32:00;;;;;;;3.1;1.4;;;;;;;18.53;64.97852;1002.333;;;;
2019/10/11 15:34:25;;;;;;;5.4;1.6;;;;;;;18.55;65.13184;1002.289;;;;